Latest Coastal Weather Observations for Smithton

IDT60701

Issued at 6:42 pm EDT Friday 3 December 2021 (issued every 10 minutes, with the page automatically refreshed every 10 minutes)

About coastal observations | Map of coastal stations | Coastal observations for TAS | Marine services | Other Formats
Station Details ID: 091292 Name: SMITHTON AERODROME Lat: -40.83 Lon: 145.08 Height: 7.5 m
Data from the previous 72 hours. | See also: Recent months at Smithton
Date/Time
EDT
Wind Sea
Height
m
Swell Vis
km
Cloud Weather Temp
°C
Press
MSL
hPa
Rain since
9am
mm
Dir  Spd
kts
Gust
kts
Height
m
Period
s
Dir
03/06:30pm WSW 14 19 - - - - - - - 15.0 1017.0 0.0
03/06:00pm WSW 15 21 - - - - - - - 15.7 1017.2 0.0
03/05:30pm WSW 17 22 - - - - - - - 16.9 1017.4 0.0
03/05:00pm WSW 15 22 - - - - - - - 16.6 1017.5 0.0
03/04:30pm SW 17 23 - - - - - - - 17.0 1017.5 0.0
03/04:00pm SW 15 21 - - - - - - - 17.9 1017.4 0.0
03/03:30pm WSW 15 21 - - - - - - - 18.1 1017.5 0.0
03/03:00pm WSW 15 21 - - - - - - - 18.2 1017.6 0.0
03/02:30pm WSW 15 21 - - - - - - - 18.3 1017.5 0.0
03/02:00pm SW 12 20 - - - - - - - 18.3 1017.6 0.0
03/01:30pm SW 13 21 - - - - - - - 18.3 1017.5 0.0
03/01:00pm SW 15 22 - - - - - - - 17.8 1017.9 0.0
03/12:44pm SW 14 25 - - - - - - - 18.0 1017.8 0.0
03/12:30pm WSW 15 22 - - - - - - - 17.7 1017.8 0.0
03/12:00pm SW 14 20 - - - - - - - 18.0 1017.9 0.0
03/11:30am SW 16 20 - - - - - - - 17.5 1018.0 0.0
03/11:00am SSW 13 17 - - - - - - - 16.8 1018.0 0.0
03/10:30am SSW 13 22 - - - - - - - 16.8 1018.1 0.0
03/10:00am SW 15 22 - - - - - - - 16.2 1018.2 0.0
03/09:30am SSW 13 19 - - - - - - - 16.0 1018.3 0.0
03/09:00am SW 15 20 - - - - - - - 15.1 1018.2 0.0
03/08:30am SSW 14 18 - - - - - - - 14.4 1018.1 0.0
03/08:00am SW 12 15 - - - - - - - 13.5 1018.1 0.0
03/07:30am SW 8 11 - - - - - - - 12.6 1017.9 0.0
03/07:00am SSW 4 5 - - - - - - - 11.0 1017.4 0.0
03/06:30am SSW 5 6 - - - - - - - 9.4 1017.3 0.0
03/06:00am WSW 7 8 - - - - - - - 9.1 1017.1 0.0
03/05:30am WSW 8 9 - - - - - - - 9.3 1016.7 0.0
03/05:00am SW 8 9 - - - - - - - 9.6 1016.5 0.0
03/04:30am SW 7 8 - - - - - - - 9.6 1016.1 0.0
03/04:00am SSW 6 7 - - - - - - - 8.8 1016.0 0.0
03/03:30am SSW 6 8 - - - - - - - 9.3 1015.8 0.0
03/03:00am SSW 7 8 - - - - - - - 9.3 1015.8 0.0
03/02:30am SSW 7 8 - - - - - - - 9.0 1015.7 0.0
03/02:00am WSW 8 9 - - - - - - - 9.3 1015.6 0.0
03/01:30am WSW 8 8 - - - - - - - 8.9 1015.9 0.0
03/01:00am WSW 8 8 - - - - - - - 8.6 1016.2 0.0
03/12:30am W 7 8 - - - - - - - 9.0 1016.3 0.0
03/12:00am WSW 7 7 - - - - - - - 9.4 1016.5 0.0
 
Date/Time
EDT
Wind Sea
Height
m
Swell Vis
km
Cloud Weather Temp
°C
Press
MSL
hPa
Rain since
9am
mm
Dir  Spd
kts
Gust
kts
Height
m
Period
s
Dir
02/11:30pm WSW 7 8 - - - - - - - 11.3 1016.6 0.0
02/11:00pm WSW 7 8 - - - - - - - 10.8 1016.4 0.0
02/10:30pm SW 8 9 - - - - - - - 10.6 1016.1 0.0
02/10:00pm WSW 11 15 - - - - - - - 11.5 1015.7 0.0
02/09:30pm SW 10 13 - - - - - - - 12.4 1015.0 0.0
02/09:00pm SW 13 18 - - - - - - - 12.4 1014.4 0.0
02/08:30pm SW 14 19 - - - - - - - 12.9 1013.8 0.0
02/08:00pm SW 13 19 - - - - - - - 13.8 1013.3 0.0
02/07:30pm SW 14 19 - - - - - - - 14.5 1013.0 0.0
02/07:00pm SW 12 15 - - - - - - - 14.6 1012.6 0.0
02/06:30pm SW 13 19 - - - - - - - 15.7 1011.7 0.0
02/06:00pm SW 15 20 - - - - - - - 16.8 1011.3 0.0
02/05:30pm W 10 13 - - - - - - - 21.0 1010.9 0.0
02/05:00pm W 11 14 - - - - - - - 19.8 1010.9 0.0
02/04:30pm WNW 10 13 - - - - - - - 20.5 1011.1 0.0
02/04:00pm N 6 9 - - - - - - - 20.8 1011.1 0.0
02/03:52pm N 5 7 - - - - - - - 19.5 1011.1 0.0
02/03:42pm N 6 7 - - - - - - - 19.6 1011.4 0.0
02/03:30pm NNE 7 9 - - - - - - - 19.6 1011.3 0.0
02/03:00pm N 8 11 - - - - - - Thunderstorm 19.9 1011.8 0.0
02/02:58pm N 7 11 - - - - - - - 20.1 1011.8 0.0
02/02:48pm NNE 7 8 - - - - - - - 20.7 1011.3 0.0
02/02:30pm NNE 7 9 - - - - - - - 21.4 1011.8 0.0
02/02:00pm NNE 7 10 - - - - - - - 21.5 1012.0 0.0
02/01:30pm NNE 8 11 - - - - - - - 21.2 1012.6 0.0
02/01:00pm NNE 10 14 - - - - - - - 20.7 1013.0 0.0
02/12:30pm NE 12 16 - - - - - - - 21.6 1012.9 0.0
02/12:00pm NE 12 16 - - - - - - - 22.7 1012.9 0.0
02/11:30am NE 12 16 - - - - - - - 22.7 1013.2 0.0
02/11:00am NE 13 16 - - - - - - - 22.0 1012.9 0.0
02/10:30am ENE 14 19 - - - - - - - 21.8 1012.8 0.0
02/10:00am ENE 12 17 - - - - - - - 22.4 1012.9 0.0
02/09:30am ENE 13 17 - - - - - - - 21.6 1013.0 0.0
02/09:00am ENE 12 15 - - - - - - - 21.4 1012.8 0.0
02/08:30am ENE 10 14 - - - - - - - 20.7 1012.8 0.0
02/08:00am E 8 13 - - - - - - - 19.6 1012.7 0.0
02/07:30am ENE 6 8 - - - - - - - 18.2 1012.7 0.0
02/07:00am ENE 6 11 - - - - - - - 16.6 1012.4 0.0
02/06:30am ESE 7 10 - - - - - - - 14.8 1012.0 0.0
02/06:00am WSW 2 6 - - - - - - - 11.9 1011.8 0.0
02/05:30am S 2 4 - - - - - - - 10.6 1011.5 0.0
02/05:00am SSE 4 5 - - - - - - - 10.7 1011.4 0.0
02/04:30am SSE 4 6 - - - - - - - 11.1 1011.5 0.0
02/04:00am SSE 4 5 - - - - - - - 11.0 1011.9 0.0
02/03:30am CALM 0 0 - - - - - - - 11.1 1011.8 0.0
02/03:00am CALM 0 0 - - - - - - - 12.2 1012.1 0.0
02/02:30am S 5 7 - - - - - - - 13.3 1012.2 0.0
02/02:00am S 5 6 - - - - - - - 12.2 1012.5 0.0
02/01:30am S 5 6 - - - - - - - 12.7 1012.7 0.0
02/01:00am SSW 5 5 - - - - - - - 12.5 1013.1 0.0
02/12:30am NE 2 5 - - - - - - - 12.1 1013.2 0.0
02/12:00am CALM 0 0 - - - - - - - 13.1 1013.2 0.0
 
Date/Time
EDT
Wind Sea
Height
m
Swell Vis
km
Cloud Weather Temp
°C
Press
MSL
hPa
Rain since
9am
mm
Dir  Spd
kts
Gust
kts
Height
m
Period
s
Dir
01/11:30pm CALM 0 0 - - - - - - - 13.6 1013.2 0.0
01/11:00pm CALM 0 0 - - - - - - - 13.8 1013.4 0.0
01/10:30pm NE 3 5 - - - - - - - 15.2 1013.7 0.0
01/10:00pm NE 4 5 - - - - - - - 15.3 1013.8 0.0
01/09:30pm CALM 0 0 - - - - - - - 15.5 1013.5 0.0
01/09:00pm ENE 4 6 - - - - - - - 16.4 1013.2 0.0
01/08:30pm NE 4 5 - - - - - - - 17.0 1013.1 0.0
01/08:00pm NE 6 8 - - - - - - - 18.1 1013.0 0.0
01/07:30pm NE 7 8 - - - - - - - 19.1 1012.6 0.0
01/07:00pm ENE 8 11 - - - - - - - 19.6 1012.5 0.0
01/06:30pm NE 10 13 - - - - - - - 19.7 1012.1 0.0
01/06:00pm NE 11 15 - - - - - - - 20.4 1012.0 0.0
01/05:30pm NE 12 15 - - - - - - - 21.3 1011.9 0.0
01/05:00pm NE 11 14 - - - - - - - 21.9 1011.9 0.0
01/04:30pm ENE 12 15 - - - - - - - 21.7 1011.9 0.0
01/04:00pm ENE 12 16 - - - - - - - 22.6 1012.2 0.0
01/03:30pm ENE 13 18 - - - - - - - 23.0 1012.3 0.0
01/03:00pm ENE 14 18 - - - - - - - 22.2 1012.3 0.0
01/02:30pm ENE 14 18 - - - - - - - 22.4 1012.6 0.0
01/02:00pm ENE 16 20 - - - - - - - 22.2 1012.8 0.0
01/01:30pm ENE 16 20 - - - - - - - 20.6 1012.9 0.0
01/01:00pm ENE 12 15 - - - - - - - 18.7 1013.4 0.0
01/12:30pm ENE 13 18 - - - - - - - 19.3 1013.2 0.0
01/12:05pm ENE 18 28 - - - - - - - 19.7 1012.6 0.0
01/12:00pm ENE 17 24 - - - - - - - 20.4 1012.7 0.0
01/11:30am ENE 18 26 - - - - - - - 18.7 1012.7 0.0
01/11:00am ENE 19 26 - - - - - - - 18.8 1012.9 0.0
01/10:30am ENE 17 23 - - - - - - - 18.7 1012.8 0.0
01/10:01am ENE 18 28 - - - - - - - 18.4 1012.7 0.0
01/10:00am ENE 19 28 - - - - - - - 18.4 1012.7 0.0
01/09:44am ENE 17 27 - - - - - - - 17.9 1012.7 0.0
01/09:30am ENE 19 28 - - - - - - - 18.0 1012.6 0.0
01/09:00am ENE 17 25 - - - - - - - 17.5 1012.6 0.0
01/08:30am ENE 19 30 - - - - - - - 17.6 1012.5 0.0
01/08:00am ENE 18 26 - - - - - - - 18.1 1012.6 0.0
01/07:30am ENE 19 28 - - - - - - - 17.0 1012.2 0.0
01/07:22am ENE 18 28 - - - - - - - 16.7 1012.2 0.0
01/07:00am ENE 18 24 - - - - - - - 15.9 1011.9 0.0
01/06:30am E 18 26 - - - - - - - 15.7 1011.9 0.0
01/06:06am ENE 17 27 - - - - - - - 15.6 1011.8 0.0
01/06:00am ENE 18 25 - - - - - - - 15.5 1011.8 0.0
01/05:00am ENE 17 27 - - - - - - - 15.6 1011.9 0.0
01/04:38am ENE 17 27 - - - - - - - 15.7 1011.9 0.0
01/04:30am ENE 17 26 - - - - - - - 15.7 1011.9 0.0
01/04:12am ENE 17 27 - - - - - - - 15.8 1012.0 0.0
01/04:00am ENE 16 22 - - - - - - - 15.7 1011.9 0.0
01/03:30am ENE 15 22 - - - - - - - 15.7 1012.2 0.0
01/03:00am ENE 13 19 - - - - - - - 15.7 1012.7 0.0
01/02:30am ENE 13 22 - - - - - - - 15.7 1012.9 0.0
01/02:00am ENE 14 19 - - - - - - - 15.7 1013.1 0.0
01/01:30am ENE 16 23 - - - - - - - 15.7 1013.3 0.0
01/01:00am ENE 15 24 - - - - - - - 15.9 1013.6 0.0
01/12:30am ENE 14 24 - - - - - - - 15.8 1013.9 0.0
01/12:00am ENE 15 20 - - - - - - - 15.7 1013.9 0.0
 
Date/Time
EDT
Wind Sea
Height
m
Swell Vis
km
Cloud Weather Temp
°C
Press
MSL
hPa
Rain since
9am
mm
Dir  Spd
kts
Gust
kts
Height
m
Period
s
Dir
30/11:30pm ENE 14 22 - - - - - - - 15.7 1014.1 0.0
30/11:00pm ENE 13 18 - - - - - - - 15.6 1014.3 0.0
30/10:30pm ENE 13 19 - - - - - - - 15.6 1014.4 0.0
30/10:00pm E 13 19 - - - - - - - 15.6 1014.5 0.0
30/09:30pm ENE 12 17 - - - - - - - 15.6 1014.5 0.0
30/09:00pm E 13 17 - - - - - - - 15.7 1014.2 0.0
30/08:30pm ENE 12 17 - - - - - - - 15.8 1014.2 0.0
30/08:00pm ENE 14 20 - - - - - - - 16.3 1014.2 0.0
30/07:30pm ENE 14 20 - - - - - - - 16.8 1014.1 0.0
30/07:00pm ENE 13 19 - - - - - - - 17.2 1014.0 0.0

Other formats

Comma delimited format used in spreadsheet applications
http://www.bom.gov.au/fwo/IDT60701/IDT60701.94953.axf

JavaScript Object Notation format (JSON) in row-major order
http://www.bom.gov.au/fwo/IDT60701/IDT60701.94953.json

Data quality

Most of these data are generated automatically and are frequently updated. Quality checks on data are not normally performed. It is possible for incorrect values to appear. Refer to information at About Latest Weather Observations and please check the disclaimer before using these data.